createdAt,value
2016-12-05T00:00:18.107Z,0
2016-12-05T00:01:18.184Z,0
2016-12-05T00:02:18.258Z,0
2016-12-05T00:03:18.311Z,0
2016-12-05T00:04:18.326Z,0
2016-12-05T00:05:18.398Z,0
2016-12-05T00:06:18.436Z,0
2016-12-05T00:07:18.488Z,0
2016-12-05T00:08:18.557Z,0
2016-12-05T00:09:18.627Z,0
2016-12-05T00:10:18.672Z,0
2016-12-05T00:11:18.739Z,0
2016-12-05T00:12:18.798Z,0
2016-12-05T00:13:18.872Z,0
2016-12-05T00:14:18.911Z,0
2016-12-05T00:15:18.984Z,0
2016-12-05T00:16:19.005Z,0
2016-12-05T00:17:19.074Z,0
2016-12-05T00:18:19.119Z,0
2016-12-05T00:19:19.179Z,0
2016-12-05T00:20:19.246Z,0
2016-12-05T00:21:19.313Z,0
2016-12-05T00:22:19.373Z,0
2016-12-05T00:23:19.426Z,0
2016-12-05T00:24:19.770Z,0
2016-12-05T00:25:19.524Z,0
2016-12-05T00:26:19.578Z,0
2016-12-05T00:27:19.639Z,0
2016-12-05T00:28:19.689Z,0
2016-12-05T00:29:19.740Z,0
2016-12-05T00:30:19.837Z,0
2016-12-05T00:31:19.859Z,0
2016-12-05T00:32:19.903Z,0
2016-12-05T00:33:19.976Z,0
2016-12-05T00:34:20.047Z,0
2016-12-05T00:35:20.092Z,0
2016-12-05T00:36:20.132Z,0
2016-12-05T00:37:20.203Z,0
2016-12-05T00:38:20.242Z,0
2016-12-05T00:39:20.307Z,0
2016-12-05T00:40:20.345Z,0
2016-12-05T00:41:20.406Z,0
2016-12-05T00:42:20.468Z,0
2016-12-05T00:43:20.523Z,0
2016-12-05T00:44:20.590Z,0
2016-12-05T00:45:20.659Z,0
2016-12-05T00:46:20.702Z,0
2016-12-05T00:47:21.064Z,0
2016-12-05T00:48:20.803Z,0
2016-12-05T00:49:20.861Z,0
2016-12-05T00:50:20.929Z,0
2016-12-05T00:51:20.976Z,0
2016-12-05T00:52:21.052Z,0
2016-12-05T00:53:21.085Z,0
2016-12-05T00:54:21.128Z,0
2016-12-05T00:55:21.204Z,0
2016-12-05T00:56:21.248Z,0
2016-12-05T00:57:21.319Z,0
2016-12-05T00:58:21.379Z,0
2016-12-05T00:59:21.416Z,0
2016-12-05T01:00:21.500Z,0
2016-12-05T01:01:21.555Z,0
2016-12-05T01:02:21.593Z,0
2016-12-05T01:03:21.669Z,0
2016-12-05T01:04:21.713Z,0
2016-12-05T01:05:21.767Z,0
2016-12-05T01:06:21.841Z,0
2016-12-05T01:07:21.887Z,0
2016-12-05T01:08:21.924Z,0
2016-12-05T01:09:21.988Z,0
2016-12-05T01:10:22.049Z,0
2016-12-05T01:11:22.091Z,0
2016-12-05T01:12:22.171Z,0
2016-12-05T01:13:22.222Z,0
2016-12-05T01:14:22.409Z,0
2016-12-05T01:15:22.340Z,0
2016-12-05T01:16:22.396Z,0
2016-12-05T01:17:22.433Z,0
2016-12-05T01:18:22.491Z,0
2016-12-05T01:19:22.537Z,0
2016-12-05T01:20:22.611Z,0
2016-12-05T01:21:22.640Z,0
2016-12-05T01:22:22.693Z,0
2016-12-05T01:23:22.795Z,0
2016-12-05T01:24:22.809Z,0
2016-12-05T01:25:22.901Z,0
2016-12-05T01:26:22.934Z,0
2016-12-05T01:27:22.998Z,0
2016-12-05T01:28:23.048Z,0
2016-12-05T01:29:23.126Z,0
2016-12-05T01:30:23.526Z,0
2016-12-05T01:31:23.233Z,0
2016-12-05T01:32:23.270Z,0
2016-12-05T01:33:23.334Z,0
2016-12-05T01:34:23.373Z,0
2016-12-05T01:35:23.425Z,0
2016-12-05T01:36:23.515Z,0
2016-12-05T01:37:23.572Z,0
2016-12-05T01:38:23.623Z,0
2016-12-05T01:39:23.649Z,0
2016-12-05T01:40:23.712Z,0
2016-12-05T01:41:23.791Z,0
2016-12-05T01:42:23.819Z,0
2016-12-05T01:43:23.896Z,0
2016-12-05T01:44:23.991Z,0
2016-12-05T01:45:24.017Z,0
2016-12-05T01:46:24.079Z,0
2016-12-05T01:47:24.131Z,0
2016-12-05T01:48:24.170Z,0
2016-12-05T01:49:24.236Z,0
2016-12-05T01:50:24.288Z,0
2016-12-05T01:51:24.365Z,0
2016-12-05T01:52:24.381Z,0
2016-12-05T01:53:24.450Z,0
2016-12-05T01:54:24.543Z,0
2016-12-05T01:55:24.606Z,0
2016-12-05T01:56:24.640Z,0
2016-12-05T01:57:24.670Z,0
2016-12-05T01:58:24.745Z,0
2016-12-05T01:59:24.790Z,0
2016-12-05T02:00:24.877Z,0
2016-12-05T02:01:24.940Z,0
2016-12-05T02:02:24.970Z,0
2016-12-05T02:03:25.032Z,0
2016-12-05T02:04:25.080Z,0
2016-12-05T02:05:25.133Z,0
2016-12-05T02:06:25.189Z,0
2016-12-05T02:07:25.253Z,0
2016-12-05T02:08:25.318Z,0
2016-12-05T02:09:25.350Z,0
2016-12-05T02:10:25.444Z,0
2016-12-05T02:11:25.459Z,0
2016-12-05T02:12:25.520Z,0
2016-12-05T02:13:25.575Z,0
2016-12-05T02:14:25.649Z,0
2016-12-05T02:15:25.689Z,0
2016-12-05T02:16:25.760Z,0
2016-12-05T02:17:25.798Z,0
2016-12-05T02:18:25.856Z,0
2016-12-05T02:19:25.928Z,0
2016-12-05T02:20:25.980Z,0
2016-12-05T02:21:26.036Z,0
2016-12-05T02:22:26.096Z,0
2016-12-05T02:23:26.172Z,0
2016-12-05T02:24:26.227Z,0
2016-12-05T02:25:26.261Z,0
2016-12-05T02:26:26.326Z,0
2016-12-05T02:27:26.367Z,0
2016-12-05T02:28:26.439Z,0
2016-12-05T02:29:26.507Z,0
2016-12-05T02:30:26.548Z,0
2016-12-05T02:31:26.594Z,0
2016-12-05T02:32:26.643Z,0
2016-12-05T02:33:26.725Z,0
2016-12-05T02:34:26.784Z,0
2016-12-05T02:35:26.812Z,0
2016-12-05T02:36:26.892Z,0
2016-12-05T02:37:26.949Z,0
2016-12-05T02:38:26.980Z,0
2016-12-05T02:39:27.028Z,0
2016-12-05T02:40:27.107Z,0
2016-12-05T02:41:27.172Z,0
2016-12-05T02:42:27.190Z,0
2016-12-05T02:43:27.310Z,0
2016-12-05T02:44:27.315Z,0
2016-12-05T02:45:27.375Z,0
2016-12-05T02:46:27.433Z,0
2016-12-05T02:47:27.471Z,0
2016-12-05T02:48:27.528Z,0
2016-12-05T02:49:27.613Z,0
2016-12-05T02:50:27.639Z,0
2016-12-05T02:51:27.707Z,0
2016-12-05T02:52:27.784Z,0
2016-12-05T02:53:27.814Z,0
2016-12-05T02:54:27.879Z,0
2016-12-05T02:55:27.964Z,0
2016-12-05T02:56:27.979Z,0
2016-12-05T02:57:28.061Z,0
2016-12-05T02:58:28.129Z,0
2016-12-05T02:59:28.155Z,0
2016-12-05T03:00:28.233Z,0
2016-12-05T03:01:28.295Z,0
2016-12-05T03:02:28.315Z,0
2016-12-05T03:03:28.423Z,0
2016-12-05T03:04:28.748Z,0
2016-12-05T03:05:28.521Z,0
2016-12-05T03:06:28.566Z,0
2016-12-05T03:07:28.629Z,0
2016-12-05T03:08:28.681Z,0
2016-12-05T03:09:28.718Z,0
2016-12-05T03:10:28.836Z,0
2016-12-05T03:11:28.960Z,0
2016-12-05T03:12:28.876Z,0
2016-12-05T03:13:28.941Z,0
2016-12-05T03:14:29.024Z,0
2016-12-05T03:15:29.045Z,0
2016-12-05T03:16:29.123Z,0
2016-12-05T03:17:29.158Z,0
2016-12-05T03:18:29.221Z,0
2016-12-05T03:19:29.281Z,0
2016-12-05T03:20:29.351Z,0
2016-12-05T03:21:29.414Z,0
2016-12-05T03:22:29.433Z,0
2016-12-05T03:23:29.489Z,0
2016-12-05T03:24:29.574Z,0
2016-12-05T03:25:29.620Z,0
2016-12-05T03:26:29.691Z,0
2016-12-05T03:27:29.723Z,0
2016-12-05T03:28:29.797Z,0
2016-12-05T03:29:29.858Z,0
2016-12-05T03:30:29.914Z,0
2016-12-05T03:31:29.955Z,0
2016-12-05T03:32:30.003Z,0
2016-12-05T03:33:30.092Z,0
2016-12-05T03:34:30.136Z,0
2016-12-05T03:35:30.193Z,0
2016-12-05T03:36:30.250Z,0
2016-12-05T03:37:30.612Z,0
2016-12-05T03:38:30.350Z,0
2016-12-05T03:39:30.424Z,0
2016-12-05T03:40:30.479Z,0
2016-12-05T03:41:30.534Z,0
2016-12-05T03:42:30.598Z,0
2016-12-05T03:43:30.627Z,0
2016-12-05T03:44:30.691Z,0
2016-12-05T03:45:30.736Z,0
2016-12-05T03:46:30.806Z,0
2016-12-05T03:47:30.866Z,0
2016-12-05T03:48:30.921Z,0
2016-12-05T03:49:30.994Z,0
2016-12-05T03:50:31.011Z,0
2016-12-05T03:51:31.071Z,0
2016-12-05T03:52:31.133Z,0
2016-12-05T03:53:31.179Z,0
2016-12-05T03:54:31.245Z,0
2016-12-05T03:55:31.320Z,0
2016-12-05T03:56:31.362Z,0
2016-12-05T03:57:31.625Z,0
2016-12-05T03:58:31.484Z,0
2016-12-05T03:59:31.528Z,0
2016-12-05T04:00:31.590Z,0
2016-12-05T04:01:31.640Z,0
2016-12-05T04:02:31.682Z,0
2016-12-05T04:03:31.774Z,0
2016-12-05T04:04:31.802Z,0
2016-12-05T04:05:31.876Z,0
2016-12-05T04:06:31.940Z,0
2016-12-05T04:07:32.001Z,0
2016-12-05T04:08:32.038Z,0
2016-12-05T04:09:32.089Z,0
2016-12-05T04:10:32.175Z,0
2016-12-05T04:11:32.211Z,0
2016-12-05T04:12:32.261Z,0
2016-12-05T04:13:32.328Z,0
2016-12-05T04:14:32.374Z,0
2016-12-05T04:15:32.453Z,0
2016-12-05T04:16:32.465Z,0
2016-12-05T04:17:32.551Z,0
2016-12-05T04:18:32.605Z,0
2016-12-05T04:19:32.670Z,0
2016-12-05T04:20:32.703Z,0
2016-12-05T04:21:32.764Z,0
2016-12-05T04:22:32.832Z,0
2016-12-05T04:23:32.869Z,0
2016-12-05T04:24:32.930Z,0
2016-12-05T04:25:33.292Z,0
2016-12-05T04:26:33.041Z,0
2016-12-05T04:27:33.107Z,0
2016-12-05T04:28:33.177Z,0
2016-12-05T04:29:33.230Z,0
2016-12-05T04:30:33.287Z,0
2016-12-05T04:31:33.320Z,0
2016-12-05T04:32:33.374Z,0
2016-12-05T04:33:33.434Z,0
2016-12-05T04:34:33.506Z,0
2016-12-05T04:35:33.545Z,0
2016-12-05T04:36:33.608Z,0
2016-12-05T04:37:33.701Z,0
2016-12-05T04:38:33.714Z,0
2016-12-05T04:39:33.774Z,0
2016-12-05T04:40:33.812Z,0
2016-12-05T04:41:33.902Z,0
2016-12-05T04:42:33.957Z,0
2016-12-05T04:43:34.020Z,0
2016-12-05T04:44:34.060Z,0
2016-12-05T04:45:34.107Z,0
2016-12-05T04:46:34.162Z,0
2016-12-05T04:47:34.241Z,0
2016-12-05T04:48:34.268Z,0
2016-12-05T04:49:34.349Z,0
2016-12-05T04:50:34.395Z,0
2016-12-05T04:51:34.464Z,0
2016-12-05T04:52:34.507Z,0
2016-12-05T04:53:34.565Z,0
2016-12-05T04:54:34.597Z,0
2016-12-05T04:55:34.686Z,0
2016-12-05T04:56:34.781Z,0
2016-12-05T04:57:34.790Z,0
2016-12-05T04:58:34.846Z,0
2016-12-05T04:59:34.922Z,0
2016-12-05T05:00:34.985Z,0
2016-12-05T05:01:35.008Z,0
2016-12-05T05:02:35.086Z,0
2016-12-05T05:03:35.150Z,0
2016-12-05T05:04:35.169Z,0
2016-12-05T05:05:35.237Z,0
2016-12-05T05:06:35.323Z,0
2016-12-05T05:07:35.339Z,0
2016-12-05T05:08:35.399Z,0
2016-12-05T05:09:35.438Z,0
2016-12-05T05:10:35.497Z,0
2016-12-05T05:11:35.586Z,0
2016-12-05T05:12:35.629Z,0
2016-12-05T05:13:35.670Z,0
2016-12-05T05:14:35.743Z,0
2016-12-05T05:15:35.803Z,0
2016-12-05T05:16:35.866Z,0
2016-12-05T05:17:36.219Z,0
2016-12-05T05:18:35.976Z,0
2016-12-05T05:19:36.052Z,0
2016-12-05T05:20:36.076Z,0
2016-12-05T05:21:36.133Z,0
2016-12-05T05:22:36.196Z,0
2016-12-05T05:23:36.243Z,0
2016-12-05T05:24:36.298Z,0
2016-12-05T05:25:36.372Z,0
2016-12-05T05:26:36.420Z,0
2016-12-05T05:27:36.470Z,0
2016-12-05T05:28:36.509Z,0
2016-12-05T05:29:36.599Z,0
2016-12-05T05:30:36.634Z,0
2016-12-05T05:31:36.694Z,0
2016-12-05T05:32:36.748Z,0
2016-12-05T05:33:36.822Z,0
2016-12-05T05:34:36.887Z,0
2016-12-05T05:35:36.906Z,0
2016-12-05T05:36:36.962Z,0
2016-12-05T05:37:37.029Z,0
2016-12-05T05:38:37.106Z,0
2016-12-05T05:39:37.149Z,0
2016-12-05T05:40:37.232Z,0
2016-12-05T05:41:37.566Z,0
2016-12-05T05:42:37.319Z,0
2016-12-05T05:43:37.391Z,0
2016-12-05T05:44:37.426Z,0
2016-12-05T05:45:37.507Z,0
2016-12-05T05:46:37.557Z,0
2016-12-05T05:47:37.604Z,0
2016-12-05T05:48:37.662Z,0
2016-12-05T05:49:37.737Z,0
2016-12-05T05:50:37.782Z,0
2016-12-05T05:51:37.819Z,0
2016-12-05T05:52:37.894Z,0
2016-12-05T05:53:37.939Z,0
2016-12-05T05:54:38.004Z,0
2016-12-05T05:55:38.032Z,0
2016-12-05T05:56:38.122Z,0
2016-12-05T05:57:38.183Z,0
2016-12-05T05:58:38.204Z,0
2016-12-05T05:59:38.279Z,0
2016-12-05T06:00:38.340Z,0
2016-12-05T06:01:38.383Z,0
2016-12-05T06:02:38.442Z,0
2016-12-05T06:03:38.513Z,0
2016-12-05T06:04:38.565Z,0
2016-12-05T06:05:38.622Z,0
2016-12-05T06:06:38.696Z,0
2016-12-05T06:07:38.724Z,0
2016-12-05T06:08:38.795Z,0
2016-12-05T06:09:38.823Z,0
2016-12-05T06:10:38.900Z,0
2016-12-05T06:11:38.941Z,0
2016-12-05T06:12:39.013Z,0
2016-12-05T06:13:39.056Z,0
2016-12-05T06:14:39.113Z,0
2016-12-05T06:15:39.179Z,0
2016-12-05T06:16:39.232Z,0
2016-12-05T06:17:39.280Z,0
2016-12-05T06:18:39.334Z,0
2016-12-05T06:19:39.385Z,0
2016-12-05T06:20:39.439Z,0
2016-12-05T06:21:39.521Z,0
2016-12-05T06:22:39.567Z,0
2016-12-05T06:23:39.608Z,0
2016-12-05T06:24:39.693Z,0
2016-12-05T06:25:40.015Z,0
2016-12-05T06:26:39.811Z,0
2016-12-05T06:27:39.848Z,0
2016-12-05T06:28:39.906Z,0
2016-12-05T06:29:39.943Z,0
2016-12-05T06:30:39.997Z,0
2016-12-05T06:31:40.079Z,0
2016-12-05T06:32:40.128Z,0
2016-12-05T06:33:40.181Z,0
2016-12-05T06:34:40.233Z,0
2016-12-05T06:35:40.283Z,0
2016-12-05T06:36:40.365Z,0
2016-12-05T06:37:40.390Z,0
2016-12-05T06:38:40.469Z,0
2016-12-05T06:39:40.515Z,0
2016-12-05T06:40:40.578Z,0
2016-12-05T06:41:40.635Z,0
2016-12-05T06:42:40.694Z,0
2016-12-05T06:43:40.743Z,0
2016-12-05T06:44:40.809Z,0
2016-12-05T06:45:40.867Z,0
2016-12-05T06:46:40.918Z,0
2016-12-05T06:47:40.971Z,0
2016-12-05T06:48:41.029Z,0
2016-12-05T06:49:41.070Z,0
2016-12-05T06:50:41.243Z,0
2016-12-05T06:51:41.236Z,0
2016-12-05T06:52:41.229Z,0
2016-12-05T06:53:41.319Z,0
2016-12-05T06:54:41.378Z,0
2016-12-05T06:55:41.409Z,0
2016-12-05T06:56:41.461Z,0
2016-12-05T06:57:41.542Z,0
2016-12-05T06:58:41.582Z,0
2016-12-05T06:59:42.133Z,0
2016-12-05T07:00:41.694Z,0
2016-12-05T07:01:41.775Z,0
2016-12-05T07:02:41.824Z,0
2016-12-05T07:03:42.058Z,0
2016-12-05T07:04:42.124Z,0
2016-12-05T07:05:41.970Z,0
2016-12-05T07:06:42.026Z,0
2016-12-05T07:07:42.105Z,0
2016-12-05T07:08:42.161Z,5
2016-12-05T07:09:42.230Z,5
2016-12-05T07:10:42.247Z,5
2016-12-05T07:11:42.347Z,5
2016-12-05T07:12:42.372Z,5
2016-12-05T07:13:42.433Z,5
2016-12-05T07:14:42.494Z,5
2016-12-05T07:15:42.536Z,5
2016-12-05T07:16:42.588Z,5
2016-12-05T07:17:42.649Z,5
2016-12-05T07:18:42.715Z,5
2016-12-05T07:19:42.760Z,5
2016-12-05T07:20:42.827Z,5
2016-12-05T07:21:43.187Z,5
2016-12-05T07:22:42.921Z,5
2016-12-05T07:23:42.993Z,5
2016-12-05T07:24:43.026Z,5
2016-12-05T07:25:43.085Z,5
2016-12-05T07:26:43.154Z,5
2016-12-05T07:27:43.226Z,5
2016-12-05T07:28:43.255Z,5
2016-12-05T07:29:43.333Z,10
2016-12-05T07:30:43.381Z,10
2016-12-05T07:31:43.410Z,10
2016-12-05T07:32:43.704Z,10
2016-12-05T07:33:43.569Z,10
2016-12-05T07:34:43.579Z,10
2016-12-05T07:35:43.651Z,10
2016-12-05T07:36:43.734Z,10
2016-12-05T07:37:43.765Z,10
2016-12-05T07:38:43.829Z,10
2016-12-05T07:39:43.910Z,10
2016-12-05T07:40:43.936Z,10
2016-12-05T07:41:43.991Z,10
2016-12-05T07:42:44.029Z,10
2016-12-05T07:43:44.092Z,10
2016-12-05T07:44:44.141Z,10
2016-12-05T07:45:44.219Z,10
2016-12-05T07:46:44.252Z,10
2016-12-05T07:47:44.332Z,10
2016-12-05T07:48:44.392Z,10
2016-12-05T07:49:44.462Z,10
2016-12-05T07:50:44.496Z,10
2016-12-05T07:51:44.557Z,10
2016-12-05T07:52:44.609Z,10
2016-12-05T07:53:44.651Z,10
2016-12-05T07:54:44.696Z,10
2016-12-05T07:55:44.749Z,10
2016-12-05T07:56:44.850Z,10
2016-12-05T07:57:44.875Z,15
2016-12-05T07:58:44.955Z,15
2016-12-05T07:59:45.004Z,15
2016-12-05T08:00:45.057Z,15
2016-12-05T08:01:45.310Z,15
2016-12-05T08:02:45.362Z,15
2016-12-05T08:03:45.521Z,15
2016-12-05T08:04:45.283Z,15
2016-12-05T08:05:45.372Z,15
2016-12-05T08:06:45.401Z,15
2016-12-05T08:07:45.454Z,15
2016-12-05T08:08:45.489Z,15
2016-12-05T08:09:45.577Z,15
2016-12-05T08:10:45.602Z,15
2016-12-05T08:11:45.666Z,15
2016-12-05T08:12:45.718Z,15
2016-12-05T08:13:45.796Z,15
2016-12-05T08:14:45.811Z,15
2016-12-05T08:15:45.881Z,15
2016-12-05T08:16:45.944Z,15
2016-12-05T08:17:45.989Z,15
2016-12-05T08:18:46.084Z,15
2016-12-05T08:19:46.095Z,15
2016-12-05T08:20:46.190Z,15
2016-12-05T08:21:46.216Z,15
2016-12-05T08:22:46.268Z,15
2016-12-05T08:23:46.321Z,15
2016-12-05T08:24:46.407Z,15
2016-12-05T08:25:46.475Z,20
2016-12-05T08:26:46.528Z,20
2016-12-05T08:27:46.755Z,20
2016-12-05T08:28:46.628Z,20
2016-12-05T08:29:46.680Z,20
2016-12-05T08:30:46.738Z,20
2016-12-05T08:31:47.005Z,20
2016-12-05T08:32:47.060Z,20
2016-12-05T08:33:46.909Z,20
2016-12-05T08:34:46.931Z,20
2016-12-05T08:35:47.010Z,20
2016-12-05T08:36:47.055Z,20
2016-12-05T08:37:47.118Z,20
2016-12-05T08:38:47.191Z,20
2016-12-05T08:39:47.241Z,20
2016-12-05T08:40:47.289Z,20
2016-12-05T08:41:47.345Z,20
2016-12-05T08:42:47.415Z,20
2016-12-05T08:43:47.448Z,20
2016-12-05T08:44:47.529Z,20
2016-12-05T08:45:47.574Z,20
2016-12-05T08:46:47.644Z,20
2016-12-05T08:47:47.687Z,20
2016-12-05T08:48:47.716Z,20
2016-12-05T08:49:47.793Z,20
2016-12-05T08:50:47.848Z,20
2016-12-05T08:51:48.238Z,20
2016-12-05T08:52:47.965Z,20
2016-12-05T08:53:48.010Z,20
2016-12-05T08:54:48.067Z,20
2016-12-05T08:55:48.124Z,20
2016-12-05T08:56:48.206Z,20
2016-12-05T08:57:48.239Z,20
2016-12-05T08:58:48.464Z,20
2016-12-05T08:59:48.389Z,20
2016-12-05T09:00:48.442Z,20
2016-12-05T09:01:48.464Z,20
2016-12-05T09:02:48.743Z,20
2016-12-05T09:03:48.881Z,20
2016-12-05T09:04:48.640Z,20
2016-12-05T09:05:48.685Z,20
2016-12-05T09:06:48.780Z,20
2016-12-05T09:07:48.814Z,20
2016-12-05T09:08:48.879Z,20
2016-12-05T09:09:48.927Z,20
2016-12-05T09:10:48.995Z,20
2016-12-05T09:11:49.044Z,20
2016-12-05T09:12:49.102Z,20
2016-12-05T09:13:49.486Z,20
2016-12-05T09:14:49.226Z,20
2016-12-05T09:15:49.281Z,20
2016-12-05T09:16:49.348Z,20
2016-12-05T09:17:49.381Z,20
2016-12-05T09:18:49.451Z,20
2016-12-05T09:19:49.477Z,20
2016-12-05T09:20:49.574Z,20
2016-12-05T09:21:49.610Z,25
2016-12-05T09:22:49.667Z,25
2016-12-05T09:23:49.739Z,25
2016-12-05T09:24:49.777Z,25
2016-12-05T09:25:49.863Z,25
2016-12-05T09:26:49.877Z,25
2016-12-05T09:27:49.948Z,25
2016-12-05T09:28:50.023Z,25
2016-12-05T09:29:50.088Z,25
2016-12-05T09:30:50.116Z,25
2016-12-05T09:31:50.611Z,25
2016-12-05T09:32:50.436Z,25
2016-12-05T09:33:50.305Z,25
2016-12-05T09:34:50.359Z,25
2016-12-05T09:35:50.414Z,25
2016-12-05T09:36:50.494Z,25
2016-12-05T09:37:50.524Z,25
2016-12-05T09:38:50.577Z,25
2016-12-05T09:39:50.637Z,25
2016-12-05T09:40:50.719Z,25
2016-12-05T09:41:50.743Z,25
2016-12-05T09:42:50.833Z,25
2016-12-05T09:43:50.897Z,25
2016-12-05T09:44:50.936Z,25
2016-12-05T09:45:50.980Z,25
2016-12-05T09:46:51.059Z,25
2016-12-05T09:47:51.109Z,25
2016-12-05T09:48:51.451Z,25
2016-12-05T09:49:51.238Z,25
2016-12-05T09:50:51.275Z,25
2016-12-05T09:51:51.337Z,25
2016-12-05T09:52:51.386Z,25
2016-12-05T09:53:51.453Z,25
2016-12-05T09:54:51.506Z,25
2016-12-05T09:55:51.593Z,25
2016-12-05T09:56:51.611Z,25
2016-12-05T09:57:51.683Z,30
2016-12-05T09:58:51.730Z,30
2016-12-05T09:59:51.792Z,30
2016-12-05T10:00:51.831Z,30
2016-12-05T10:01:52.084Z,30
2016-12-05T10:02:51.989Z,30
2016-12-05T10:03:52.218Z,30
2016-12-05T10:04:52.152Z,30
2016-12-05T10:05:52.119Z,30
2016-12-05T10:06:52.198Z,30
2016-12-05T10:07:52.231Z,30
2016-12-05T10:08:52.305Z,30
2016-12-05T10:09:52.442Z,30
2016-12-05T10:10:52.409Z,30
2016-12-05T10:11:52.468Z,30
2016-12-05T10:12:52.536Z,30
2016-12-05T10:13:52.584Z,30
2016-12-05T10:14:52.619Z,30
2016-12-05T10:15:52.703Z,30
2016-12-05T10:16:52.737Z,30
2016-12-05T10:17:52.789Z,30
2016-12-05T10:18:52.866Z,30
2016-12-05T10:19:52.924Z,30
2016-12-05T10:20:52.983Z,30
2016-12-05T10:21:53.048Z,30
2016-12-05T10:22:53.087Z,30
2016-12-05T10:23:53.151Z,30
2016-12-05T10:24:53.222Z,30
2016-12-05T10:25:53.258Z,30
2016-12-05T10:26:53.623Z,30
2016-12-05T10:27:53.401Z,30
2016-12-05T10:28:53.436Z,30
2016-12-05T10:29:53.483Z,30
2016-12-05T10:30:53.561Z,30
2016-12-05T10:31:53.591Z,30
2016-12-05T10:32:53.895Z,30
2016-12-05T10:33:53.731Z,30
2016-12-05T10:34:53.772Z,30
2016-12-05T10:35:53.858Z,30
2016-12-05T10:36:53.895Z,30
2016-12-05T10:37:53.954Z,30
2016-12-05T10:38:54.018Z,30
2016-12-05T10:39:54.059Z,30
2016-12-05T10:40:54.138Z,30
2016-12-05T10:41:54.185Z,30
2016-12-05T10:42:54.239Z,30
2016-12-05T10:43:54.297Z,30
2016-12-05T10:44:54.339Z,30
2016-12-05T10:45:54.393Z,30
2016-12-05T10:46:54.461Z,30
2016-12-05T10:47:54.516Z,30
2016-12-05T10:48:54.570Z,30
2016-12-05T10:49:54.647Z,30
2016-12-05T10:50:54.694Z,30
2016-12-05T10:51:54.759Z,30
2016-12-05T10:52:54.823Z,30
2016-12-05T10:53:54.904Z,30
2016-12-05T10:54:54.969Z,30
2016-12-05T10:55:55.309Z,30
2016-12-05T10:56:55.060Z,30
2016-12-05T10:57:55.105Z,30
2016-12-05T10:58:55.163Z,30
2016-12-05T10:59:55.212Z,30
2016-12-05T11:00:55.287Z,30
2016-12-05T11:01:55.358Z,30
2016-12-05T11:02:55.388Z,30
2016-12-05T11:03:55.435Z,30
2016-12-05T11:04:55.523Z,30
2016-12-05T11:05:55.575Z,30
2016-12-05T11:06:55.614Z,30
2016-12-05T11:07:55.676Z,30
2016-12-05T11:08:55.734Z,30
2016-12-05T11:09:55.810Z,30
2016-12-05T11:10:55.842Z,30
2016-12-05T11:11:55.883Z,30
2016-12-05T11:12:56.287Z,30
2016-12-05T11:13:55.996Z,30
2016-12-05T11:14:56.088Z,30
2016-12-05T11:15:56.108Z,30
2016-12-05T11:16:56.500Z,30
2016-12-05T11:17:56.570Z,30
2016-12-05T11:18:56.338Z,30
2016-12-05T11:19:56.348Z,30
2016-12-05T11:20:56.426Z,35
2016-12-05T11:21:56.464Z,35
2016-12-05T11:22:56.554Z,35
2016-12-05T11:23:56.575Z,35
2016-12-05T11:24:56.620Z,35
2016-12-05T11:25:56.692Z,35
2016-12-05T11:26:56.783Z,35
2016-12-05T11:27:56.799Z,35
2016-12-05T11:28:56.879Z,35
2016-12-05T11:29:56.948Z,35
2016-12-05T11:30:56.989Z,35
2016-12-05T11:31:57.050Z,35
2016-12-05T11:32:57.107Z,35
2016-12-05T11:33:57.161Z,35
2016-12-05T11:34:57.238Z,35
2016-12-05T11:35:57.271Z,35
2016-12-05T11:36:57.358Z,35
2016-12-05T11:37:57.414Z,35
2016-12-05T11:38:57.507Z,35
2016-12-05T11:39:57.515Z,35
2016-12-05T11:40:57.579Z,35
2016-12-05T11:41:57.646Z,35
2016-12-05T11:42:58.017Z,35
2016-12-05T11:43:57.742Z,35
2016-12-05T11:44:57.818Z,35
2016-12-05T11:45:57.866Z,35
2016-12-05T11:46:57.884Z,35
2016-12-05T11:47:57.968Z,35
2016-12-05T11:48:58.047Z,35
2016-12-05T11:49:58.083Z,35
2016-12-05T11:50:58.128Z,35
2016-12-05T11:51:58.522Z,35
2016-12-05T11:52:58.239Z,35
2016-12-05T11:53:58.293Z,35
2016-12-05T11:54:58.366Z,35
2016-12-05T11:55:58.419Z,35
2016-12-05T11:56:58.498Z,35
2016-12-05T11:57:58.550Z,35
2016-12-05T11:58:58.601Z,35
2016-12-05T11:59:58.666Z,35
2016-12-05T12:00:58.729Z,35
2016-12-05T12:01:58.754Z,35
2016-12-05T12:02:58.817Z,40
2016-12-05T12:03:58.901Z,40
2016-12-05T12:04:58.939Z,40
2016-12-05T12:05:59.011Z,40
2016-12-05T12:06:59.059Z,40
2016-12-05T12:07:59.124Z,40
2016-12-05T12:08:59.179Z,40
2016-12-05T12:09:59.207Z,40
2016-12-05T12:10:59.269Z,40
2016-12-05T12:11:59.364Z,40
2016-12-05T12:12:59.400Z,40
2016-12-05T12:13:59.459Z,40
2016-12-05T12:14:59.525Z,40
2016-12-05T12:15:59.581Z,40
2016-12-05T12:16:59.607Z,40
2016-12-05T12:17:59.705Z,40
2016-12-05T12:18:59.751Z,40
2016-12-05T12:19:59.786Z,40
2016-12-05T12:20:59.872Z,40
2016-12-05T12:21:59.924Z,40
2016-12-05T12:22:59.981Z,40
2016-12-05T12:24:00.030Z,40
2016-12-05T12:25:00.071Z,40
2016-12-05T12:26:00.158Z,40
2016-12-05T12:27:00.180Z,40
2016-12-05T12:28:00.247Z,40
2016-12-05T12:29:00.308Z,40
2016-12-05T12:30:00.373Z,40
2016-12-05T12:31:00.439Z,40
2016-12-05T12:32:00.494Z,40
2016-12-05T12:33:00.563Z,40
2016-12-05T12:34:00.626Z,40
2016-12-05T12:35:00.650Z,40
2016-12-05T12:36:00.704Z,40
2016-12-05T12:37:00.808Z,40
2016-12-05T12:38:00.814Z,40
2016-12-05T12:39:01.200Z,40
2016-12-05T12:40:00.942Z,40
2016-12-05T12:41:00.993Z,40
2016-12-05T12:42:01.098Z,40
2016-12-05T12:43:01.373Z,35
2016-12-05T12:44:01.184Z,35
2016-12-05T12:45:01.246Z,35
2016-12-05T12:46:01.290Z,35
2016-12-05T12:47:01.350Z,35
2016-12-05T12:48:01.438Z,35
2016-12-05T12:49:01.466Z,35
2016-12-05T12:50:01.850Z,35
2016-12-05T12:51:01.896Z,35
2016-12-05T12:52:01.659Z,35
2016-12-05T12:53:01.693Z,35
2016-12-05T12:54:01.753Z,35
2016-12-05T12:55:01.820Z,35
2016-12-05T12:56:01.863Z,35
2016-12-05T12:57:01.929Z,35
2016-12-05T12:58:02.011Z,35
2016-12-05T12:59:02.058Z,35
2016-12-05T13:00:02.113Z,35
2016-12-05T13:01:02.173Z,35
2016-12-05T13:02:02.234Z,30
2016-12-05T13:03:02.281Z,30
2016-12-05T13:04:02.327Z,30
2016-12-05T13:05:02.397Z,30
2016-12-05T13:06:02.461Z,30
2016-12-05T13:07:02.520Z,30
2016-12-05T13:08:02.569Z,30
2016-12-05T13:09:02.620Z,30
2016-12-05T13:10:02.681Z,30
2016-12-05T13:11:03.044Z,30
2016-12-05T13:12:02.813Z,30
2016-12-05T13:13:02.876Z,30
2016-12-05T13:14:03.078Z,30
2016-12-05T13:15:02.990Z,30
2016-12-05T13:16:03.039Z,30
2016-12-05T13:17:03.072Z,30
2016-12-05T13:18:03.149Z,30
2016-12-05T13:19:03.208Z,30
2016-12-05T13:20:03.289Z,30
2016-12-05T13:21:03.301Z,30
2016-12-05T13:22:03.376Z,30
2016-12-05T13:23:03.447Z,30
2016-12-05T13:24:03.508Z,25
2016-12-05T13:25:03.556Z,25
2016-12-05T13:26:03.600Z,25
2016-12-05T13:27:03.665Z,25
2016-12-05T13:28:03.718Z,25
2016-12-05T13:29:03.775Z,25
2016-12-05T13:30:03.834Z,25
2016-12-05T13:31:03.899Z,25
2016-12-05T13:32:03.931Z,25
2016-12-05T13:33:04.013Z,25
2016-12-05T13:34:04.065Z,25
2016-12-05T13:35:04.130Z,25
2016-12-05T13:36:04.481Z,25
2016-12-05T13:37:04.268Z,25
2016-12-05T13:38:04.319Z,25
2016-12-05T13:39:04.387Z,25
2016-12-05T13:40:04.454Z,25
2016-12-05T13:41:04.488Z,25
2016-12-05T13:42:04.511Z,25
2016-12-05T13:43:04.616Z,25
2016-12-05T13:44:04.648Z,25
2016-12-05T13:45:04.713Z,25
2016-12-05T13:46:04.754Z,25
2016-12-05T13:47:04.820Z,25
2016-12-05T13:48:04.888Z,25
2016-12-05T13:49:04.919Z,25
2016-12-05T13:50:04.982Z,25
2016-12-05T13:51:05.040Z,25
2016-12-05T13:52:05.076Z,20
2016-12-05T13:53:05.152Z,20
2016-12-05T13:54:05.213Z,20
2016-12-05T13:55:05.281Z,20
2016-12-05T13:56:05.340Z,20
2016-12-05T13:57:05.379Z,20
2016-12-05T13:58:05.450Z,15
2016-12-05T13:59:05.526Z,10
2016-12-05T14:00:05.550Z,5
2016-12-05T14:01:05.626Z,5
2016-12-05T14:02:05.678Z,5
2016-12-05T14:03:05.716Z,5
2016-12-05T14:04:05.820Z,5
2016-12-05T14:05:05.853Z,5
2016-12-05T14:06:06.229Z,5
2016-12-05T14:07:05.939Z,5
2016-12-05T14:08:06.031Z,5
2016-12-05T14:09:06.063Z,5
2016-12-05T14:10:06.129Z,5
2016-12-05T14:11:06.193Z,5
2016-12-05T14:12:06.245Z,5
2016-12-05T14:13:06.317Z,5
2016-12-05T14:14:06.359Z,5
2016-12-05T14:15:06.441Z,5
2016-12-05T14:16:06.454Z,5
2016-12-05T14:17:06.528Z,5
2016-12-05T14:18:06.605Z,5
2016-12-05T14:19:06.664Z,5
2016-12-05T14:20:06.684Z,5
2016-12-05T14:21:06.765Z,5
2016-12-05T14:22:06.845Z,5
2016-12-05T14:23:06.878Z,5
2016-12-05T14:24:06.949Z,5
2016-12-05T14:25:06.969Z,5
2016-12-05T14:26:07.028Z,5
2016-12-05T14:27:07.086Z,5
2016-12-05T14:28:07.187Z,5
2016-12-05T14:29:07.222Z,5
2016-12-05T14:30:07.291Z,5
2016-12-05T14:31:07.336Z,5
2016-12-05T14:32:07.415Z,5
2016-12-05T14:33:07.441Z,5